createdAt,value
2018-11-02T00:01:20.232Z,11.13
2018-11-02T00:03:49.762Z,10.53
2018-11-02T00:06:19.311Z,10.10
2018-11-02T00:08:49.092Z,11.63
2018-11-02T00:11:20.255Z,10.13
2018-11-02T00:13:52.902Z,12.43
2018-11-02T00:16:23.248Z,9.63
2018-11-02T00:18:52.912Z,10.40
2018-11-02T00:21:22.370Z,10.20
2018-11-02T00:23:51.792Z,9.90
2018-11-02T00:26:21.438Z,9.70
2018-11-02T00:28:51.166Z,9.47
2018-11-02T00:31:20.677Z,10.50
2018-11-02T00:33:52.220Z,10.30
2018-11-02T00:36:21.680Z,9.97
2018-11-02T00:38:51.251Z,8.80
2018-11-02T00:41:20.977Z,8.30
2018-11-02T00:43:52.033Z,8.70
2018-11-02T00:46:21.821Z,9.40
2018-11-02T00:48:51.543Z,8.10
2018-11-02T00:51:21.432Z,9.23
2018-11-02T00:53:51.249Z,8.53
2018-11-02T00:56:20.868Z,8.67
2018-11-02T00:58:50.568Z,8.60
2018-11-02T01:01:23.998Z,8.13
2018-11-02T01:03:53.813Z,9.50
2018-11-02T01:06:23.916Z,8.80
2018-11-02T01:08:53.761Z,10.83
2018-11-02T01:11:23.651Z,8.87
2018-11-02T01:16:28.275Z,10.83
2018-11-02T01:18:58.957Z,10.00
2018-11-02T01:21:28.604Z,9.67
2018-11-02T01:23:58.403Z,8.83
2018-11-02T01:26:28.127Z,8.70
2018-11-02T01:28:58.252Z,9.03
2018-11-02T01:31:27.997Z,8.60
2018-11-02T01:33:57.713Z,9.17
2018-11-02T01:36:27.842Z,8.90
2018-11-02T01:38:57.549Z,9.33
2018-11-02T01:41:27.011Z,8.63
2018-11-02T01:43:56.851Z,8.10
2018-11-02T01:46:26.582Z,8.10
2018-11-02T01:48:57.486Z,8.43
2018-11-02T01:51:27.196Z,8.80
2018-11-02T01:53:57.717Z,7.93
2018-11-02T01:56:27.487Z,8.80
2018-11-02T01:58:57.266Z,8.67
2018-11-02T02:01:27.917Z,8.63
2018-11-02T02:03:57.555Z,7.73
2018-11-02T02:06:27.590Z,7.40
2018-11-02T02:08:57.401Z,7.73
2018-11-02T02:11:27.110Z,8.03
2018-11-02T02:13:56.956Z,8.10
2018-11-02T02:16:26.954Z,7.83
2018-11-02T02:18:56.654Z,6.53
2018-11-02T02:21:26.251Z,7.13
2018-11-02T02:23:55.969Z,7.03
2018-11-02T02:26:25.714Z,7.70
2018-11-02T02:28:55.276Z,7.07
2018-11-02T02:31:25.791Z,7.33
2018-11-02T02:33:57.230Z,7.63
2018-11-02T02:36:27.085Z,7.67
2018-11-02T02:38:56.855Z,7.07
2018-11-02T02:41:28.584Z,8.10
2018-11-02T02:43:59.214Z,6.73
2018-11-02T02:46:29.010Z,7.07
2018-11-02T02:48:58.664Z,7.40
2018-11-02T02:51:29.428Z,6.73
2018-11-02T02:53:59.124Z,6.80
2018-11-02T02:56:28.865Z,7.53
2018-11-02T02:58:58.683Z,7.17
2018-11-02T03:01:29.309Z,6.60
2018-11-02T03:03:58.992Z,7.03
2018-11-02T03:06:29.878Z,7.67
2018-11-02T03:08:59.587Z,7.30
2018-11-02T03:11:29.541Z,7.57
2018-11-02T03:13:59.422Z,7.33
2018-11-02T03:16:29.276Z,7.07
2018-11-02T03:18:59.048Z,7.63
2018-11-02T03:21:29.033Z,7.23
2018-11-02T03:23:58.837Z,7.50
2018-11-02T03:26:28.515Z,7.93
2018-11-02T03:28:58.228Z,8.27
2018-11-02T03:31:28.057Z,6.40
2018-11-02T03:33:57.932Z,7.43
2018-11-02T03:36:27.716Z,6.93
2018-11-02T03:38:57.331Z,7.50
2018-11-02T03:41:27.067Z,9.20
2018-11-02T03:43:56.791Z,8.40
2018-11-02T03:46:26.516Z,8.30
2018-11-02T03:48:56.180Z,8.83
2018-11-02T03:51:26.031Z,8.03
2018-11-02T03:53:55.779Z,7.43
2018-11-02T03:56:26.372Z,7.83
2018-11-02T03:58:56.205Z,7.60
2018-11-02T04:01:26.031Z,8.47
2018-11-02T04:03:55.706Z,8.67
2018-11-02T04:06:25.669Z,9.00
2018-11-02T04:08:55.444Z,8.90
2018-11-02T04:11:25.149Z,9.30
2018-11-02T04:13:54.923Z,9.40
2018-11-02T04:16:25.359Z,8.83
2018-11-02T04:18:55.093Z,7.83
2018-11-02T04:21:24.834Z,9.20
2018-11-02T04:23:54.563Z,8.30
2018-11-02T04:26:24.380Z,7.50
2018-11-02T04:28:54.158Z,8.40
2018-11-02T04:31:23.978Z,8.00
2018-11-02T04:33:53.695Z,8.63
2018-11-02T04:36:23.333Z,8.10
2018-11-02T04:38:53.127Z,8.83
2018-11-02T04:41:22.825Z,8.37
2018-11-02T04:43:52.688Z,8.60
2018-11-02T04:46:22.408Z,8.20
2018-11-02T04:48:52.218Z,8.40
2018-11-02T04:51:21.931Z,8.83
2018-11-02T04:53:54.731Z,9.03
2018-11-02T04:56:25.847Z,8.10
2018-11-02T04:58:56.977Z,9.23
2018-11-02T05:01:26.986Z,8.73
2018-11-02T05:03:56.783Z,8.57
2018-11-02T05:06:26.395Z,8.20
2018-11-02T05:08:56.152Z,7.73
2018-11-02T05:11:27.091Z,7.77
2018-11-02T05:13:57.112Z,8.97
2018-11-02T05:16:26.802Z,7.37
2018-11-02T05:18:56.836Z,7.93
2018-11-02T05:21:26.632Z,9.40
2018-11-02T05:23:56.727Z,8.70
2018-11-02T05:26:26.391Z,8.53
2018-11-02T05:28:57.180Z,8.80
2018-11-02T05:31:26.907Z,8.30
2018-11-02T05:33:56.640Z,8.60
2018-11-02T05:36:26.619Z,10.17
2018-11-02T05:38:56.366Z,8.80
2018-11-02T05:41:25.974Z,8.17
2018-11-02T05:43:55.696Z,7.70
2018-11-02T05:46:25.533Z,7.73
2018-11-02T05:48:55.400Z,7.60
2018-11-02T05:51:25.352Z,8.10
2018-11-02T05:53:55.095Z,7.30
2018-11-02T05:56:24.776Z,6.90
2018-11-02T05:58:54.503Z,7.17
2018-11-02T06:01:25.475Z,7.10
2018-11-02T06:03:55.378Z,7.27
2018-11-02T06:06:25.193Z,7.37
2018-11-02T06:08:55.153Z,7.00
2018-11-02T06:11:24.847Z,6.97
2018-11-02T06:13:54.717Z,6.63
2018-11-02T06:16:24.637Z,7.20
2018-11-02T06:18:54.620Z,7.40
2018-11-02T06:21:24.547Z,5.93
2018-11-02T06:23:56.169Z,7.27
2018-11-02T06:26:25.836Z,6.43
2018-11-02T06:28:55.597Z,7.27
2018-11-02T06:31:26.620Z,6.80
2018-11-02T06:33:57.396Z,6.80
2018-11-02T06:36:27.487Z,7.03
2018-11-02T06:38:58.013Z,7.80
2018-11-02T06:41:27.645Z,7.10
2018-11-02T06:43:57.446Z,9.10
2018-11-02T06:46:27.199Z,7.87
2018-11-02T06:48:57.215Z,7.23
2018-11-02T06:51:27.387Z,7.83
2018-11-02T06:53:58.676Z,6.60
2018-11-02T06:56:29.202Z,6.80
2018-11-02T06:58:59.440Z,7.53
2018-11-02T07:01:30.137Z,8.03
2018-11-02T07:04:00.305Z,8.07
2018-11-02T07:06:31.220Z,7.40
2018-11-02T07:09:02.439Z,7.70
2018-11-02T07:11:32.610Z,8.60
2018-11-02T07:14:02.607Z,7.50
2018-11-02T07:16:32.687Z,9.40
2018-11-02T07:19:02.895Z,7.37
2018-11-02T07:21:33.230Z,8.40
2018-11-02T07:24:03.585Z,7.07
2018-11-02T07:26:33.702Z,8.07
2018-11-02T07:29:04.127Z,7.40
2018-11-02T07:31:34.386Z,7.23
2018-11-02T07:34:04.707Z,7.23
2018-11-02T07:36:35.203Z,7.70
2018-11-02T07:39:07.283Z,7.30
2018-11-02T07:41:37.299Z,7.33
2018-11-02T07:44:07.648Z,7.30
2018-11-02T07:46:40.603Z,7.20
2018-11-02T07:49:11.759Z,6.07
2018-11-02T07:51:42.507Z,7.50
2018-11-02T07:54:12.972Z,6.20
2018-11-02T07:56:43.097Z,7.50
2018-11-02T07:59:15.388Z,6.43
2018-11-02T08:01:46.700Z,7.90
2018-11-02T08:04:17.298Z,7.20
2018-11-02T08:06:47.745Z,7.83
2018-11-02T08:09:17.941Z,6.83
2018-11-02T08:11:48.368Z,7.87
2018-11-02T08:14:18.532Z,6.80
2018-11-02T08:16:48.395Z,7.30
2018-11-02T08:19:18.530Z,7.83
2018-11-02T08:21:49.088Z,7.43
2018-11-02T08:24:20.292Z,8.87
2018-11-02T08:26:50.450Z,7.20
2018-11-02T08:29:20.585Z,7.37
2018-11-02T08:31:51.513Z,7.90
2018-11-02T08:34:21.295Z,7.60
2018-11-02T08:36:51.132Z,6.80
2018-11-02T08:39:20.906Z,7.00
2018-11-02T08:41:50.740Z,6.77
2018-11-02T08:44:21.765Z,6.40
2018-11-02T08:46:51.579Z,7.97
2018-11-02T08:49:21.265Z,7.50
2018-11-02T08:51:52.004Z,7.30
2018-11-02T08:54:22.297Z,6.67
2018-11-02T08:56:53.416Z,7.73
2018-11-02T08:59:23.697Z,6.67
2018-11-02T09:01:53.500Z,6.67
2018-11-02T09:04:23.706Z,7.23
2018-11-02T09:06:54.462Z,6.93
2018-11-02T09:09:24.514Z,8.07
2018-11-02T09:11:54.359Z,7.07
2018-11-02T09:14:24.273Z,7.67
2018-11-02T09:16:54.034Z,7.17
2018-11-02T09:19:25.372Z,7.10
2018-11-02T09:21:55.178Z,6.67
2018-11-02T09:24:25.348Z,6.43
2018-11-02T09:26:55.859Z,6.77
2018-11-02T09:29:26.542Z,7.20
2018-11-02T09:31:57.090Z,7.30
2018-11-02T09:34:27.129Z,6.70
2018-11-02T09:36:57.524Z,7.87
2018-11-02T09:39:27.708Z,7.23
2018-11-02T09:41:57.544Z,7.23
2018-11-02T09:44:27.468Z,7.40
2018-11-02T09:46:57.332Z,7.20
2018-11-02T09:49:27.179Z,9.47
2018-11-02T09:51:57.291Z,7.40
2018-11-02T09:54:26.923Z,7.27
2018-11-02T09:56:56.888Z,6.50
2018-11-02T09:59:27.833Z,7.37
2018-11-02T10:01:58.411Z,7.73
2018-11-02T10:04:28.583Z,7.80
2018-11-02T10:06:58.366Z,8.00
2018-11-02T10:09:28.135Z,7.27
2018-11-02T10:11:58.033Z,7.63
2018-11-02T10:14:27.847Z,7.33
2018-11-02T10:16:57.480Z,7.17
2018-11-02T10:19:27.356Z,7.73
2018-11-02T10:21:57.046Z,7.23
2018-11-02T10:24:27.416Z,6.87
2018-11-02T10:26:58.230Z,7.80
2018-11-02T10:29:28.521Z,8.07
2018-11-02T10:31:58.360Z,8.53
2018-11-02T10:34:28.385Z,7.80
2018-11-02T10:36:58.719Z,7.50
2018-11-02T10:39:28.539Z,7.80
2018-11-02T10:42:01.701Z,7.10
2018-11-02T10:44:34.564Z,7.90
2018-11-02T10:47:06.505Z,7.37
2018-11-02T10:49:37.384Z,8.60
2018-11-02T10:52:07.950Z,8.50
2018-11-02T10:54:39.219Z,8.67
2018-11-02T10:57:09.009Z,7.80
2018-11-02T10:59:38.683Z,8.47
2018-11-02T11:02:10.408Z,7.80
2018-11-02T11:04:40.178Z,8.40
2018-11-02T11:07:09.989Z,9.03
2018-11-02T11:09:39.848Z,8.60
2018-11-02T11:12:09.741Z,9.20
2018-11-02T11:14:41.012Z,8.37
2018-11-02T11:17:11.119Z,7.50
2018-11-02T11:19:42.305Z,8.37
2018-11-02T11:22:12.864Z,7.50
2018-11-02T11:24:42.858Z,7.43
2018-11-02T11:27:13.053Z,6.30
2018-11-02T11:29:42.954Z,6.80
2018-11-02T11:32:14.241Z,6.90
2018-11-02T11:34:44.201Z,7.60
2018-11-02T11:37:14.136Z,7.20
2018-11-02T11:39:43.970Z,7.10
2018-11-02T11:42:14.322Z,6.30
2018-11-02T11:44:45.377Z,6.40
2018-11-02T11:47:15.741Z,6.70
2018-11-02T11:49:46.917Z,6.50
2018-11-02T11:52:16.903Z,6.73
2018-11-02T11:54:47.089Z,6.40
2018-11-02T11:57:17.178Z,5.90
2018-11-02T11:59:47.527Z,6.60
2018-11-02T12:02:18.953Z,5.80
2018-11-02T12:04:49.089Z,5.80
2018-11-02T12:07:20.405Z,6.50
2018-11-02T12:09:50.330Z,7.60
2018-11-02T12:12:20.110Z,6.23
2018-11-02T12:14:51.421Z,6.10
2018-11-02T12:17:21.455Z,6.17
2018-11-02T12:19:51.544Z,6.33
2018-11-02T12:22:27.222Z,7.00
2018-11-02T12:24:57.253Z,6.20
2018-11-02T12:27:27.858Z,7.10
2018-11-02T12:29:57.923Z,6.63
2018-11-02T12:32:27.684Z,8.20
2018-11-02T12:34:57.480Z,7.07
2018-11-02T12:37:27.383Z,7.00
2018-11-02T12:39:57.513Z,6.43
2018-11-02T12:42:29.203Z,7.90
2018-11-02T12:44:59.439Z,6.90
2018-11-02T12:47:29.554Z,7.33
2018-11-02T12:49:59.761Z,6.93
2018-11-02T12:52:29.989Z,6.90
2018-11-02T12:54:59.964Z,6.87
2018-11-02T12:57:30.158Z,7.70
2018-11-02T13:00:00.775Z,7.03
2018-11-02T13:02:30.930Z,6.63
2018-11-02T13:05:00.842Z,7.80
2018-11-02T13:07:31.539Z,6.93
2018-11-02T13:10:01.319Z,8.40
2018-11-02T13:12:31.948Z,8.40
2018-11-02T13:15:01.926Z,8.60
2018-11-02T13:17:34.425Z,7.80
2018-11-02T13:20:04.743Z,8.37
2018-11-02T13:22:35.078Z,6.70
2018-11-02T13:25:06.208Z,6.10
2018-11-02T13:27:36.318Z,6.67
2018-11-02T13:30:07.425Z,7.13
2018-11-02T13:32:38.230Z,8.20
2018-11-02T13:35:10.647Z,7.50
2018-11-02T13:37:41.501Z,6.93
2018-11-02T13:40:14.037Z,6.63
2018-11-02T13:42:44.550Z,6.60
2018-11-02T13:45:16.056Z,6.40
2018-11-02T13:47:46.623Z,6.80
2018-11-02T13:50:17.691Z,7.27
2018-11-02T13:52:48.129Z,7.33
2018-11-02T13:55:19.210Z,7.27
2018-11-02T13:57:49.737Z,7.50
2018-11-02T14:00:20.462Z,6.90
2018-11-02T14:02:52.544Z,7.40
2018-11-02T14:05:22.349Z,6.80
2018-11-02T14:07:53.211Z,6.43
2018-11-02T14:10:23.511Z,7.10
2018-11-02T14:12:53.626Z,7.47
2018-11-02T14:15:23.863Z,6.90
2018-11-02T14:17:54.099Z,7.67
2018-11-02T14:20:24.139Z,8.70
2018-11-02T14:22:54.154Z,7.40
2018-11-02T14:25:24.614Z,7.50
2018-11-02T14:27:54.760Z,7.50
2018-11-02T14:30:25.268Z,8.40
2018-11-02T14:32:55.473Z,7.17
2018-11-02T14:35:25.740Z,8.63
2018-11-02T14:37:55.609Z,9.30
2018-11-02T14:40:25.755Z,8.37
2018-11-02T14:42:56.063Z,8.00
2018-11-02T14:45:26.572Z,9.27
2018-11-02T14:47:56.634Z,9.83
2018-11-02T14:50:26.893Z,10.20
2018-11-02T14:52:57.091Z,9.37
2018-11-02T14:55:27.729Z,10.00
2018-11-02T14:57:58.277Z,10.60
2018-11-02T15:00:29.054Z,10.33
2018-11-02T15:02:59.607Z,10.17
2018-11-02T15:05:29.806Z,9.77
2018-11-02T15:08:00.156Z,10.73
2018-11-02T15:10:31.593Z,10.80
2018-11-02T15:13:02.673Z,10.60
2018-11-02T15:15:33.036Z,10.40
2018-11-02T15:18:03.052Z,10.67
2018-11-02T15:20:33.481Z,10.30
2018-11-02T15:23:03.730Z,10.17
2018-11-02T15:25:33.785Z,11.20
2018-11-02T15:28:04.195Z,10.17
2018-11-02T15:30:34.601Z,10.87
2018-11-02T15:33:04.945Z,9.93
2018-11-02T15:35:35.026Z,10.07
2018-11-02T15:38:05.238Z,9.77
2018-11-02T15:40:35.290Z,9.27
2018-11-02T15:43:05.291Z,9.23
2018-11-02T15:45:35.367Z,10.00
2018-11-02T15:48:05.306Z,10.60
2018-11-02T15:50:35.606Z,10.10
2018-11-02T15:53:05.815Z,10.33
2018-11-02T15:55:36.149Z,9.60
2018-11-02T15:58:06.175Z,10.00
2018-11-02T16:00:36.751Z,10.23
2018-11-02T16:03:07.983Z,10.77
2018-11-02T16:05:38.521Z,11.00
2018-11-02T16:08:08.696Z,9.87
2018-11-02T16:10:38.845Z,10.20
2018-11-02T16:13:09.145Z,10.90
2018-11-02T16:15:39.350Z,10.17
2018-11-02T16:18:09.325Z,10.20
2018-11-02T16:20:39.271Z,14.63
2018-11-02T16:23:09.710Z,11.60
2018-11-02T16:25:40.146Z,10.13
2018-11-02T16:28:10.753Z,9.60
2018-11-02T16:30:40.924Z,11.20
2018-11-02T16:33:11.099Z,10.67
2018-11-02T16:35:41.492Z,9.70
2018-11-02T16:38:11.653Z,10.43
2018-11-02T16:40:41.839Z,10.43
2018-11-02T16:43:12.785Z,11.53
2018-11-02T16:45:42.923Z,9.93
2018-11-02T16:48:13.949Z,10.90
2018-11-02T16:50:44.624Z,10.33
2018-11-02T16:53:14.562Z,11.37
2018-11-02T16:55:44.472Z,10.10
2018-11-02T16:58:15.153Z,10.63
2018-11-02T17:00:45.449Z,10.47
2018-11-02T17:03:17.417Z,9.10
2018-11-02T17:05:47.656Z,13.80
2018-11-02T17:08:18.097Z,20.17
2018-11-02T17:10:50.311Z,13.00
2018-11-02T17:13:20.097Z,10.23
2018-11-02T17:15:50.436Z,15.47
2018-11-02T17:18:21.859Z,27.20
2018-11-02T17:20:52.707Z,18.60
2018-11-02T17:23:23.083Z,23.80
2018-11-02T17:25:52.936Z,21.13
2018-11-02T17:31:09.776Z,10.83
2018-11-02T17:33:40.262Z,9.10
2018-11-02T17:36:10.556Z,8.50
2018-11-02T17:38:40.910Z,9.50
2018-11-02T17:41:11.492Z,9.57
2018-11-02T17:43:41.883Z,7.43
2018-11-02T17:46:12.294Z,8.00
2018-11-02T17:48:42.259Z,6.13
2018-11-02T17:51:12.903Z,6.93
2018-11-02T17:53:43.224Z,7.00
2018-11-02T17:56:13.579Z,6.87
2018-11-02T17:58:45.616Z,6.30
2018-11-02T18:01:18.224Z,6.00
2018-11-02T18:03:48.093Z,6.00
2018-11-02T18:06:18.200Z,6.20
2018-11-02T18:08:48.258Z,6.10
2018-11-02T18:11:19.015Z,6.20
2018-11-02T18:13:48.725Z,5.70
2018-11-02T18:16:18.738Z,5.90
2018-11-02T18:18:50.062Z,5.80
2018-11-02T18:21:21.173Z,5.70
2018-11-02T18:23:50.978Z,7.27
2018-11-02T18:26:25.830Z,6.67
2018-11-02T18:28:55.748Z,7.33
2018-11-02T18:31:27.559Z,5.80
2018-11-02T18:33:58.284Z,5.57
2018-11-02T18:36:28.132Z,6.87
2018-11-02T18:38:57.897Z,5.93
2018-11-02T18:41:27.603Z,6.00
2018-11-02T18:43:57.431Z,6.13
2018-11-02T18:46:27.228Z,6.60
2018-11-02T18:48:56.912Z,5.90
2018-11-02T18:51:26.626Z,6.50
2018-11-02T18:53:56.509Z,6.17
2018-11-02T18:56:26.368Z,5.70
2018-11-02T18:58:56.122Z,6.43
2018-11-02T19:01:26.251Z,5.70
2018-11-02T19:03:56.466Z,6.73
2018-11-02T19:06:27.722Z,5.93
2018-11-02T19:08:58.580Z,6.07
2018-11-02T19:11:29.291Z,7.63
2018-11-02T19:13:59.756Z,6.30
2018-11-02T19:16:29.471Z,6.57
2018-11-02T19:18:59.262Z,6.87
2018-11-02T19:21:28.944Z,7.00
2018-11-02T19:24:00.195Z,6.93
2018-11-02T19:26:30.175Z,5.93
2018-11-02T19:29:00.274Z,8.37
2018-11-02T19:31:31.993Z,6.50
2018-11-02T19:34:02.604Z,7.27
2018-11-02T19:36:32.579Z,7.07
2018-11-02T19:39:02.563Z,7.00
2018-11-02T19:41:32.504Z,6.70
2018-11-02T19:44:02.296Z,6.30
2018-11-02T19:46:32.413Z,6.23
2018-11-02T19:49:02.336Z,6.10
2018-11-02T19:51:32.245Z,6.13
2018-11-02T19:54:02.230Z,6.50
2018-11-02T19:56:32.178Z,5.80
2018-11-02T19:59:01.891Z,6.03
2018-11-02T20:01:32.825Z,5.97
2018-11-02T20:04:02.564Z,5.20
2018-11-02T20:06:32.296Z,6.37
2018-11-02T20:09:01.988Z,6.60
2018-11-02T20:11:32.562Z,6.03
2018-11-02T20:14:02.401Z,5.60
2018-11-02T20:16:32.286Z,5.73
2018-11-02T20:19:01.986Z,6.40
2018-11-02T20:21:31.992Z,5.63
2018-11-02T20:24:02.993Z,4.70
2018-11-02T20:26:32.965Z,6.30
2018-11-02T20:29:02.863Z,5.83
2018-11-02T20:31:32.782Z,5.20
2018-11-02T20:34:03.717Z,5.00
2018-11-02T20:36:33.678Z,5.67
2018-11-02T20:39:05.097Z,5.20
2018-11-02T20:41:35.207Z,5.10
2018-11-02T20:44:04.987Z,5.13
2018-11-02T20:46:35.354Z,5.57
2018-11-02T20:49:05.328Z,5.33
2018-11-02T20:51:35.651Z,5.73
2018-11-02T20:54:07.301Z,4.90
2018-11-02T20:56:37.222Z,5.07
2018-11-02T20:59:06.978Z,5.50
2018-11-02T21:01:36.847Z,5.27
2018-11-02T21:04:09.021Z,4.53
2018-11-02T21:06:38.880Z,5.07
2018-11-02T21:09:11.321Z,5.30
2018-11-02T21:11:42.879Z,5.40
2018-11-02T21:14:13.023Z,5.17
2018-11-02T21:16:43.071Z,4.50
2018-11-02T21:19:13.017Z,5.67
2018-11-02T21:21:42.773Z,4.90
2018-11-02T21:24:12.653Z,4.03
2018-11-02T21:26:42.424Z,4.80
2018-11-02T21:29:12.214Z,5.40
2018-11-02T21:31:42.706Z,4.73
2018-11-02T21:34:12.408Z,4.60
2018-11-02T21:36:42.168Z,4.43
2018-11-02T21:39:13.384Z,4.50
2018-11-02T21:41:44.072Z,4.40
2018-11-02T21:44:13.883Z,4.40
2018-11-02T21:46:43.714Z,5.00
2018-11-02T21:49:13.652Z,4.83
2018-11-02T21:51:43.570Z,3.60
2018-11-02T21:54:13.337Z,5.00
2018-11-02T21:56:44.124Z,4.83
2018-11-02T21:59:14.157Z,4.20
2018-11-02T22:01:43.971Z,4.60
2018-11-02T22:04:14.027Z,4.47
2018-11-02T22:06:44.424Z,4.87
2018-11-02T22:09:15.028Z,4.60
2018-11-02T22:11:44.784Z,4.10
2018-11-02T22:14:14.516Z,5.20
2018-11-02T22:16:44.267Z,4.80
2018-11-02T22:19:14.365Z,4.20
2018-11-02T22:21:44.163Z,4.60
2018-11-02T22:24:14.742Z,4.27
2018-11-02T22:26:44.755Z,5.03
2018-11-02T22:29:15.561Z,4.67
2018-11-02T22:31:46.095Z,5.43
2018-11-02T22:34:15.860Z,5.30
2018-11-02T22:36:46.011Z,4.83
2018-11-02T22:39:16.065Z,5.07
2018-11-02T22:41:45.997Z,4.50
2018-11-02T22:44:15.800Z,4.90
2018-11-02T22:46:45.637Z,4.40
2018-11-02T22:49:15.400Z,4.80
2018-11-02T22:51:45.445Z,4.53
2018-11-02T22:54:16.171Z,5.37
2018-11-02T22:56:46.295Z,4.90
2018-11-02T22:59:16.094Z,5.77
2018-11-02T23:01:46.223Z,4.90
2018-11-02T23:04:16.158Z,5.30
2018-11-02T23:06:47.929Z,4.87
2018-11-02T23:09:17.641Z,5.40
2018-11-02T23:11:47.425Z,4.90
2018-11-02T23:14:17.135Z,6.10
2018-11-02T23:16:46.965Z,5.77
2018-11-02T23:19:16.751Z,4.57
2018-11-02T23:21:46.539Z,5.37
2018-11-02T23:24:16.324Z,5.00
2018-11-02T23:26:46.088Z,5.00
2018-11-02T23:29:16.080Z,5.20
2018-11-02T23:31:45.894Z,5.00
2018-11-02T23:34:15.597Z,4.50
2018-11-02T23:36:45.889Z,4.93
2018-11-02T23:39:15.612Z,4.63
2018-11-02T23:41:45.650Z,4.27
2018-11-02T23:44:15.489Z,4.57
2018-11-02T23:46:45.447Z,3.93
2018-11-02T23:49:15.118Z,3.97
2018-11-02T23:51:44.909Z,4.33
2018-11-02T23:54:15.282Z,4.70
2018-11-02T23:56:44.948Z,4.90
2018-11-02T23:59:14.871Z,4.03
